Time;durP1;ratioP1;P1;durP2;ratioP2;P2;SDS_P1;SDS_P2;PMS_P1;PMS_P2;Temp;Humidity;BMP_temperature;BMP_pressure;BME280_temperature;BME280_humidity;BME280_pressure;Samples;Min_cycle;Max_cycle;Signal;HPM_P1;HPM_P2
2023/12/25 00:00:16;;;;;;;12.23;2.05;;;11.40;99.90;;;;;;5013180;28;20037;-80
2023/12/25 00:02:42;;;;;;;13.38;2.33;;;11.40;99.90;;;;;;5013216;28;20351;-80
2023/12/25 00:05:09;;;;;;;8.82;1.88;;;11.40;99.90;;;;;;5013414;28;20042;-80
2023/12/25 00:07:35;;;;;;;13.63;3.15;;;11.40;99.90;;;;;;5013052;28;20358;-81
2023/12/25 00:10:00;;;;;;;13.35;2.75;;;11.40;99.90;;;;;;5013192;28;20142;-81
2023/12/25 00:12:26;;;;;;;11.35;2.05;;;11.40;99.90;;;;;;5013222;28;20054;-80
2023/12/25 00:14:52;;;;;;;12.48;2.35;;;11.40;99.90;;;;;;5013415;28;20049;-80
2023/12/25 00:17:18;;;;;;;15.15;2.22;;;11.40;99.90;;;;;;5013138;28;20104;-80
2023/12/25 00:19:43;;;;;;;15.40;2.47;;;11.40;99.90;;;;;;5014471;28;20091;-80
2023/12/25 00:22:09;;;;;;;14.57;1.95;;;11.40;99.90;;;;;;5012751;28;20123;-80
2023/12/25 00:24:35;;;;;;;15.70;2.88;;;11.40;99.90;;;;;;5014295;28;20164;-81
2023/12/25 00:27:00;;;;;;;12.32;2.22;;;11.40;99.90;;;;;;5013287;28;20167;-81
2023/12/25 00:29:26;;;;;;;13.23;2.22;;;11.40;99.90;;;;;;5013046;28;20046;-80
2023/12/25 00:31:51;;;;;;;7.55;1.70;;;11.40;99.90;;;;;;5012371;28;20066;-80
2023/12/25 00:34:17;;;;;;;11.15;1.83;;;11.40;99.90;;;;;;5013247;28;20042;-80
2023/12/25 00:36:42;;;;;;;10.75;1.92;;;11.40;99.90;;;;;;5012594;28;20394;-80
2023/12/25 00:39:09;;;;;;;13.63;2.13;;;11.40;99.90;;;;;;5013093;28;20069;-81
2023/12/25 00:41:34;;;;;;;13.43;1.90;;;11.40;99.90;;;;;;5013861;28;20050;-80
2023/12/25 00:44:00;;;;;;;10.70;1.67;;;11.40;99.90;;;;;;5012607;28;20056;-80
2023/12/25 00:46:26;;;;;;;10.35;1.50;;;11.40;99.90;;;;;;5012456;28;20085;-80
2023/12/25 00:48:52;;;;;;;9.27;2.03;;;11.40;99.90;;;;;;5012677;28;20416;-80
2023/12/25 00:51:17;;;;;;;14.30;2.45;;;11.40;99.90;;;;;;5013887;28;20104;-80
2023/12/25 00:53:43;;;;;;;7.60;1.67;;;11.40;99.90;;;;;;5012196;28;20081;-81
2023/12/25 00:56:09;;;;;;;9.50;1.55;;;11.40;99.90;;;;;;5012489;28;20048;-80
2023/12/25 00:58:35;;;;;;;13.13;1.98;;;11.40;99.90;;;;;;5012363;28;20136;-80
2023/12/25 01:01:01;;;;;;;16.08;1.98;;;11.30;99.90;;;;;;5013519;28;20046;-81
2023/12/25 01:03:26;;;;;;;6.93;1.25;;;11.30;99.90;;;;;;5012469;28;20107;-80
2023/12/25 01:05:52;;;;;;;8.90;1.83;;;11.30;99.90;;;;;;5012538;28;20061;-81
2023/12/25 01:08:18;;;;;;;6.50;1.75;;;11.30;99.90;;;;;;5012572;28;20053;-81
2023/12/25 01:10:43;;;;;;;9.60;1.33;;;11.30;99.90;;;;;;5011808;28;20069;-80
2023/12/25 01:13:09;;;;;;;11.13;1.80;;;11.30;99.90;;;;;;5011572;28;20551;-80
2023/12/25 01:15:34;;;;;;;11.75;1.52;;;11.20;99.90;;;;;;5011817;28;20073;-80
2023/12/25 01:18:00;;;;;;;7.60;1.85;;;11.20;99.90;;;;;;5012416;28;20140;-81
2023/12/25 01:20:26;;;;;;;9.70;1.60;;;11.20;99.90;;;;;;5012513;28;20041;-80
2023/12/25 01:22:51;;;;;;;10.32;1.70;;;11.20;99.90;;;;;;5012840;28;20063;-80
2023/12/25 01:25:17;;;;;;;9.70;1.23;;;11.20;99.90;;;;;;4996104;28;20050;-80
2023/12/25 01:27:43;;;;;;;8.32;1.23;;;11.20;99.90;;;;;;5011865;28;20045;-80
2023/12/25 01:30:12;;;;;;;6.32;1.00;;;11.20;99.90;;;;;;5011551;28;20128;-80
2023/12/25 01:32:38;;;;;;;8.02;1.77;;;11.20;99.90;;;;;;5011279;28;20437;-81
2023/12/25 01:35:04;;;;;;;9.75;1.65;;;11.20;99.90;;;;;;5013232;28;20058;-80
2023/12/25 01:37:30;;;;;;;9.77;1.55;;;11.10;99.90;;;;;;5012133;28;20049;-81
2023/12/25 01:39:56;;;;;;;5.97;1.23;;;11.20;99.90;;;;;;5001745;28;20100;-80
2023/12/25 01:42:22;;;;;;;7.47;1.20;;;11.20;99.90;;;;;;5007310;28;20061;-80
2023/12/25 01:44:48;;;;;;;9.50;1.45;;;11.20;99.90;;;;;;5011776;28;20049;-80
2023/12/25 01:47:17;;;;;;;8.13;2.03;;;11.10;99.90;;;;;;5011739;28;20091;-80
2023/12/25 01:49:43;;;;;;;10.98;2.15;;;11.10;99.90;;;;;;5013180;28;20038;-81
2023/12/25 01:52:10;;;;;;;8.90;1.85;;;11.00;99.90;;;;;;5011956;28;20093;-81
2023/12/25 01:54:37;;;;;;;16.08;1.40;;;11.00;99.90;;;;;;5011989;28;20076;-80
2023/12/25 01:57:04;;;;;;;14.18;1.63;;;11.00;99.90;;;;;;5012414;28;20053;-81
2023/12/25 01:59:30;;;;;;;9.30;1.80;;;11.00;99.90;;;;;;5012161;28;20046;-81
2023/12/25 02:01:59;;;;;;;7.97;1.35;;;10.90;99.90;;;;;;5011287;28;20052;-80
2023/12/25 02:04:26;;;;;;;10.50;1.35;;;11.00;99.90;;;;;;5011599;28;20053;-81
2023/12/25 02:06:54;;;;;;;5.60;1.30;;;10.90;99.90;;;;;;5011969;28;20108;-80
2023/12/25 02:09:20;;;;;;;11.20;1.35;;;10.90;99.90;;;;;;5011300;28;20054;-80
2023/12/25 02:11:45;;;;;;;13.90;1.40;;;10.90;99.90;;;;;;5011110;28;20092;-80
2023/12/25 02:14:12;;;;;;;10.68;1.42;;;10.80;99.90;;;;;;5011732;28;20034;-80
2023/12/25 02:16:39;;;;;;;14.30;2.10;;;10.90;99.90;;;;;;5011414;28;20049;-81
2023/12/25 02:19:25;;;;;;;13.20;1.90;;;10.90;99.90;;;;;;5011673;28;20042;-80
2023/12/25 02:21:51;;;;;;;6.63;1.50;;;10.90;99.90;;;;;;5011437;28;20435;-80
2023/12/25 02:24:22;;;;;;;8.20;1.33;;;10.80;99.90;;;;;;5011477;28;20088;-80
2023/12/25 02:26:48;;;;;;;11.23;1.58;;;10.80;99.90;;;;;;5012260;28;20088;-82
2023/12/25 02:29:13;;;;;;;8.07;1.65;;;10.80;99.90;;;;;;4995728;28;20070;-80
2023/12/25 02:31:39;;;;;;;13.90;2.10;;;10.80;99.90;;;;;;4988798;28;20096;-81
2023/12/25 02:34:05;;;;;;;8.73;1.30;;;10.80;99.90;;;;;;4995684;28;20129;-80
2023/12/25 02:36:30;;;;;;;11.20;1.27;;;10.80;99.90;;;;;;4996668;28;20051;-80
2023/12/25 02:38:56;;;;;;;14.93;1.83;;;10.80;99.90;;;;;;4997883;28;20438;-80
2023/12/25 02:41:22;;;;;;;9.85;1.10;;;10.80;99.90;;;;;;5013406;28;20465;-81
2023/12/25 02:43:47;;;;;;;10.25;1.48;;;10.80;99.90;;;;;;5000492;28;20038;-80
2023/12/25 02:46:13;;;;;;;14.88;1.67;;;10.80;99.90;;;;;;4998863;28;20092;-80
2023/12/25 02:48:38;;;;;;;7.72;1.50;;;10.80;99.90;;;;;;5001672;28;20047;-81
2023/12/25 02:51:04;;;;;;;9.85;1.40;;;10.80;99.90;;;;;;5014379;28;20168;-80
2023/12/25 02:53:31;;;;;;;9.68;1.67;;;10.80;99.90;;;;;;5014522;28;20050;-80
2023/12/25 02:55:56;;;;;;;13.15;1.40;;;10.80;99.90;;;;;;5015057;28;20120;-80
2023/12/25 02:58:22;;;;;;;11.93;1.77;;;10.80;99.90;;;;;;5008158;28;20113;-82
2023/12/25 03:00:48;;;;;;;8.52;1.20;;;10.80;99.90;;;;;;5000766;28;20057;-81
2023/12/25 03:03:13;;;;;;;7.80;1.60;;;10.80;99.90;;;;;;5012382;28;20046;-82
2023/12/25 03:05:40;;;;;;;9.75;1.73;;;10.80;99.90;;;;;;5012906;28;20053;-81
2023/12/25 03:08:06;;;;;;;6.32;1.23;;;10.90;99.90;;;;;;5009527;28;20121;-81
2023/12/25 03:10:32;;;;;;;11.23;1.30;;;10.80;99.90;;;;;;4995781;28;20127;-82
2023/12/25 03:12:57;;;;;;;8.05;1.10;;;10.90;99.90;;;;;;5012469;28;20077;-81
2023/12/25 03:15:24;;;;;;;8.98;1.15;;;10.80;99.90;;;;;;5012336;28;20521;-82
2023/12/25 03:17:49;;;;;;;7.82;1.48;;;10.80;99.90;;;;;;5012592;28;20058;-81
2023/12/25 03:20:15;;;;;;;9.10;1.50;;;10.80;99.90;;;;;;5012817;28;20421;-81
2023/12/25 03:22:41;;;;;;;7.50;1.00;;;10.80;99.90;;;;;;5012232;28;20049;-81
2023/12/25 03:25:06;;;;;;;6.82;1.00;;;10.90;99.90;;;;;;5012049;28;20030;-81
2023/12/25 03:27:32;;;;;;;11.13;1.10;;;10.80;99.90;;;;;;5012014;28;20049;-83
2023/12/25 03:29:58;;;;;;;5.50;1.20;;;10.80;99.90;;;;;;5011926;28;20046;-80
2023/12/25 03:32:23;;;;;;;7.30;1.20;;;10.80;99.90;;;;;;5011793;28;20088;-82
2023/12/25 03:34:49;;;;;;;8.25;1.27;;;10.80;99.90;;;;;;5008091;28;20073;-80
2023/12/25 03:37:18;;;;;;;10.07;1.27;;;10.80;99.90;;;;;;5010554;28;20128;-81
2023/12/25 03:39:44;;;;;;;6.55;1.00;;;10.80;99.90;;;;;;5011758;28;20498;-81
2023/12/25 03:42:09;;;;;;;9.55;1.13;;;10.80;99.90;;;;;;5003520;28;20064;-81
2023/12/25 03:44:35;;;;;;;10.93;1.83;;;10.80;99.90;;;;;;4998003;28;20129;-81
2023/12/25 03:47:02;;;;;;;8.52;1.67;;;10.80;99.90;;;;;;4999378;28;20571;-80
2023/12/25 03:49:28;;;;;;;7.72;1.27;;;10.70;99.90;;;;;;5012046;28;20072;-81
2023/12/25 03:51:55;;;;;;;12.32;1.77;;;10.70;99.90;;;;;;5012817;28;20069;-81
2023/12/25 03:54:22;;;;;;;14.05;1.55;;;10.70;99.90;;;;;;5011843;28;20375;-81
2023/12/25 03:56:47;;;;;;;7.97;1.30;;;10.70;99.90;;;;;;5000012;28;20503;-84
2023/12/25 03:59:13;;;;;;;8.73;1.40;;;10.70;99.90;;;;;;5014843;28;20109;-81
2023/12/25 04:01:39;;;;;;;7.57;2.00;;;10.70;99.90;;;;;;5004976;28;20042;-80
2023/12/25 04:04:05;;;;;;;12.63;1.13;;;10.70;99.90;;;;;;4993309;28;20081;-81
2023/12/25 04:06:31;;;;;;;11.48;1.35;;;10.70;99.90;;;;;;5011559;28;20149;-80
2023/12/25 04:08:57;;;;;;;11.00;1.63;;;10.70;99.90;;;;;;5011195;28;20046;-81
2023/12/25 04:11:23;;;;;;;10.55;1.30;;;10.70;99.90;;;;;;5011353;28;20046;-82
2023/12/25 04:13:53;;;;;;;13.95;1.40;;;10.70;99.90;;;;;;5010758;28;20124;-81
2023/12/25 04:16:24;;;;;;;10.18;1.38;;;10.70;99.90;;;;;;5010717;28;20107;-80
2023/12/25 04:18:52;;;;;;;6.30;1.10;;;10.60;99.90;;;;;;5011498;28;20053;-80
2023/12/25 04:21:25;;;;;;;9.52;1.27;;;10.70;99.90;;;;;;5012023;28;20041;-80
2023/12/25 04:23:51;;;;;;;10.27;1.83;;;10.70;99.90;;;;;;5008770;28;20089;-82
2023/12/25 04:26:21;;;;;;;8.88;1.60;;;10.70;99.90;;;;;;5010809;28;20046;-81
2023/12/25 04:28:48;;;;;;;7.38;1.48;;;10.70;99.90;;;;;;5011111;28;20123;-81
2023/12/25 04:31:14;;;;;;;10.32;1.40;;;10.70;99.90;;;;;;5012079;28;20045;-81
2023/12/25 04:33:39;;;;;;;13.18;1.92;;;10.70;99.90;;;;;;5012774;28;20049;-79
2023/12/25 04:36:07;;;;;;;12.23;1.48;;;10.70;99.90;;;;;;5011702;28;20563;-80
2023/12/25 04:38:33;;;;;;;9.30;1.45;;;10.70;99.90;;;;;;5012796;28;20062;-80
2023/12/25 04:40:59;;;;;;;10.35;1.52;;;10.60;99.90;;;;;;5012665;28;20053;-80
2023/12/25 04:43:25;;;;;;;9.85;1.40;;;10.70;99.90;;;;;;5013984;28;20048;-80
2023/12/25 04:45:51;;;;;;;9.32;1.48;;;10.70;99.90;;;;;;5012669;28;20421;-79
2023/12/25 04:48:17;;;;;;;10.15;1.40;;;10.60;99.90;;;;;;5012376;28;20049;-80
2023/12/25 04:50:43;;;;;;;10.45;1.33;;;10.70;99.90;;;;;;5012960;28;20054;-80
2023/12/25 04:53:10;;;;;;;7.07;1.42;;;10.60;99.90;;;;;;5012402;28;20042;-80
2023/12/25 04:55:37;;;;;;;12.95;1.45;;;10.60;99.90;;;;;;5013161;28;20050;-80
2023/12/25 04:58:03;;;;;;;8.50;1.60;;;10.60;99.90;;;;;;5012186;28;20076;-81
2023/12/25 05:00:29;;;;;;;12.45;1.95;;;10.60;99.90;;;;;;5011969;28;20069;-80
2023/12/25 05:02:55;;;;;;;11.75;2.03;;;10.60;99.90;;;;;;5013546;28;20045;-80
2023/12/25 05:05:21;;;;;;;11.13;1.50;;;10.60;99.90;;;;;;4995893;28;20100;-79
2023/12/25 05:07:46;;;;;;;12.77;1.52;;;10.50;99.90;;;;;;5012825;28;20042;-80
2023/12/25 05:10:12;;;;;;;12.68;1.73;;;10.50;99.90;;;;;;5011691;28;20050;-80
2023/12/25 05:12:37;;;;;;;9.60;1.60;;;10.50;99.90;;;;;;5013270;28;20060;-80
2023/12/25 05:15:04;;;;;;;15.32;2.03;;;10.60;99.90;;;;;;5012152;28;20497;-80
2023/12/25 05:17:29;;;;;;;9.25;1.33;;;10.50;99.90;;;;;;5011002;28;20038;-80
2023/12/25 05:19:55;;;;;;;9.73;1.80;;;10.50;99.90;;;;;;5010973;28;20520;-79
2023/12/25 05:22:20;;;;;;;12.23;1.40;;;10.40;99.90;;;;;;4993489;28;20053;-80
2023/12/25 05:24:46;;;;;;;14.65;1.90;;;10.40;99.90;;;;;;4999811;28;20033;-79
2023/12/25 05:27:11;;;;;;;12.38;1.75;;;10.40;99.90;;;;;;5011196;28;20073;-80
2023/12/25 05:29:38;;;;;;;15.40;2.80;;;10.40;99.90;;;;;;5011577;28;20041;-80
2023/12/25 05:32:04;;;;;;;11.52;1.92;;;10.40;99.90;;;;;;5012557;28;20151;-79
2023/12/25 05:34:30;;;;;;;11.50;1.65;;;10.30;99.90;;;;;;5012881;28;20084;-80
2023/12/25 05:36:55;;;;;;;15.48;2.33;;;10.30;99.90;;;;;;4998118;28;20042;-79
2023/12/25 05:39:21;;;;;;;11.70;2.47;;;10.40;99.90;;;;;;5011243;28;20042;-79
2023/12/25 05:41:47;;;;;;;11.52;1.42;;;10.30;99.90;;;;;;4998835;28;20129;-80
2023/12/25 05:44:12;;;;;;;14.30;2.15;;;10.30;99.90;;;;;;5007148;28;20050;-80
2023/12/25 05:46:38;;;;;;;9.60;1.42;;;10.30;99.90;;;;;;4997865;28;20038;-79
2023/12/25 05:49:05;;;;;;;13.40;1.83;;;10.40;99.90;;;;;;4993219;28;20046;-80
2023/12/25 05:51:31;;;;;;;12.35;1.60;;;10.30;99.90;;;;;;5001522;28;20490;-79
2023/12/25 05:53:56;;;;;;;13.80;2.53;;;10.40;99.90;;;;;;5012989;28;20050;-79
2023/12/25 05:56:22;;;;;;;13.73;2.25;;;10.40;99.90;;;;;;5012918;28;20413;-79
2023/12/25 05:58:48;;;;;;;16.52;2.75;;;10.30;99.90;;;;;;5012908;28;20052;-79
2023/12/25 06:01:14;;;;;;;15.90;2.33;;;10.30;99.90;;;;;;5013018;28;20049;-81
2023/12/25 06:03:40;;;;;;;13.35;1.60;;;10.30;99.90;;;;;;5014984;28;20800;-79
2023/12/25 06:06:06;;;;;;;13.00;1.80;;;10.30;99.90;;;;;;5015667;28;20065;-79
2023/12/25 06:08:32;;;;;;;10.68;1.85;;;10.30;99.90;;;;;;5014776;28;20050;-79
2023/12/25 06:10:58;;;;;;;13.30;2.05;;;10.30;99.90;;;;;;5015158;28;20046;-79
2023/12/25 06:13:24;;;;;;;15.60;2.40;;;10.30;99.90;;;;;;5015346;28;20045;-80
2023/12/25 06:15:50;;;;;;;15.52;1.92;;;10.30;99.90;;;;;;5014846;28;20081;-80
2023/12/25 06:18:16;;;;;;;12.63;1.83;;;10.20;99.90;;;;;;5014538;28;20085;-80
2023/12/25 06:20:41;;;;;;;10.35;1.65;;;10.20;99.90;;;;;;5014613;28;20470;-78
2023/12/25 06:23:07;;;;;;;14.13;2.40;;;10.20;99.90;;;;;;5014625;28;20530;-79
2023/12/25 06:25:33;;;;;;;13.95;3.05;;;10.20;99.90;;;;;;5015303;28;20052;-79
2023/12/25 06:27:58;;;;;;;11.30;2.05;;;10.20;99.90;;;;;;5015031;28;20056;-79
2023/12/25 06:30:25;;;;;;;14.88;1.90;;;10.20;99.90;;;;;;5015551;28;20124;-79
2023/12/25 06:32:50;;;;;;;9.50;1.75;;;10.30;99.90;;;;;;5015228;28;20120;-79
2023/12/25 06:35:16;;;;;;;10.02;1.58;;;10.20;99.90;;;;;;5006391;28;20046;-80
2023/12/25 06:37:41;;;;;;;14.77;2.03;;;10.20;99.90;;;;;;5002842;28;20060;-79
2023/12/25 06:40:08;;;;;;;12.60;2.22;;;10.10;99.90;;;;;;5015094;28;20073;-79
2023/12/25 06:42:33;;;;;;;14.68;1.60;;;10.10;99.90;;;;;;5010671;28;20490;-79
2023/12/25 06:44:59;;;;;;;10.32;1.90;;;10.20;99.90;;;;;;5013332;28;20044;-79
2023/12/25 06:47:25;;;;;;;9.52;1.65;;;10.10;99.90;;;;;;5004196;28;20394;-82
2023/12/25 06:49:51;;;;;;;15.25;2.50;;;10.10;99.90;;;;;;5014664;28;20050;-79
2023/12/25 06:52:16;;;;;;;10.80;1.95;;;10.10;99.90;;;;;;5015183;28;20045;-79
2023/12/25 06:54:42;;;;;;;13.18;1.70;;;10.00;99.90;;;;;;5014848;28;20054;-79
2023/12/25 06:57:08;;;;;;;11.02;2.08;;;10.10;99.90;;;;;;5014801;28;20091;-79
2023/12/25 06:59:33;;;;;;;12.40;1.92;;;10.10;99.90;;;;;;5014064;28;20373;-79
2023/12/25 07:01:59;;;;;;;13.50;2.08;;;10.10;99.90;;;;;;5013628;28;20045;-80
2023/12/25 07:04:24;;;;;;;11.60;1.70;;;10.10;99.90;;;;;;5008242;28;20061;-78
2023/12/25 07:06:50;;;;;;;11.60;1.75;;;10.00;99.90;;;;;;4994401;28;20510;-79
2023/12/25 07:09:16;;;;;;;13.00;1.80;;;10.00;99.90;;;;;;5013226;28;20152;-79
2023/12/25 07:11:42;;;;;;;13.15;2.13;;;10.00;99.90;;;;;;5013187;28;20038;-80
2023/12/25 07:14:11;;;;;;;12.10;1.88;;;10.00;99.90;;;;;;4996381;28;20041;-80
2023/12/25 07:16:37;;;;;;;15.50;1.75;;;10.20;99.90;;;;;;5013315;28;20046;-79
2023/12/25 07:19:03;;;;;;;13.27;2.17;;;9.90;99.90;;;;;;5011698;28;20489;-79
2023/12/25 07:21:28;;;;;;;11.57;2.00;;;10.00;99.90;;;;;;5012407;28;20045;-79
2023/12/25 07:23:56;;;;;;;13.30;2.35;;;10.10;99.90;;;;;;5012327;28;20386;-78
2023/12/25 07:26:22;;;;;;;16.00;2.47;;;9.90;99.90;;;;;;5014066;28;20054;-78
2023/12/25 07:28:48;;;;;;;15.35;2.08;;;9.90;99.90;;;;;;5014189;28;20682;-78
2023/12/25 07:31:15;;;;;;;11.80;1.70;;;9.90;99.90;;;;;;5013723;28;20466;-78
2023/12/25 07:33:41;;;;;;;12.43;1.90;;;9.90;99.90;;;;;;5013853;28;20054;-79
2023/12/25 07:36:07;;;;;;;11.68;2.47;;;9.90;99.90;;;;;;5014006;28;20111;-79
2023/12/25 07:38:34;;;;;;;12.63;1.58;;;9.80;99.90;;;;;;5013994;28;20046;-80
2023/12/25 07:41:00;;;;;;;10.45;1.65;;;9.80;99.90;;;;;;5013756;28;20049;-79
2023/12/25 07:43:26;;;;;;;16.08;2.15;;;9.80;99.90;;;;;;5013419;28;20045;-80
2023/12/25 07:45:53;;;;;;;15.27;2.33;;;9.80;99.90;;;;;;5013646;28;20054;-79
2023/12/25 07:48:20;;;;;;;14.70;2.08;;;9.80;99.90;;;;;;5012925;28;20061;-81
2023/12/25 07:50:46;;;;;;;11.23;1.90;;;9.80;99.90;;;;;;5012577;28;20046;-79
2023/12/25 07:53:11;;;;;;;13.27;1.98;;;9.80;99.90;;;;;;5013389;28;20052;-81
2023/12/25 07:55:38;;;;;;;12.35;2.40;;;9.80;99.90;;;;;;5013242;28;20042;-79
2023/12/25 07:58:04;;;;;;;12.50;2.00;;;9.80;99.90;;;;;;5013617;28;20050;-81
2023/12/25 08:00:30;;;;;;;9.75;1.60;;;9.80;99.90;;;;;;5013028;28;20042;-79
2023/12/25 08:02:55;;;;;;;13.32;2.30;;;9.70;99.90;;;;;;5013440;28;20398;-79
2023/12/25 08:05:21;;;;;;;12.18;1.60;;;9.70;99.90;;;;;;5013198;28;20046;-78
2023/12/25 08:07:47;;;;;;;13.57;1.92;;;9.70;99.90;;;;;;5013112;28;20180;-80
2023/12/25 08:10:13;;;;;;;17.63;3.35;;;9.70;99.90;;;;;;5012942;28;20236;-79
2023/12/25 08:12:43;;;;;;;9.52;2.03;;;9.70;99.90;;;;;;5013305;28;20038;-78
2023/12/25 08:15:12;;;;;;;11.48;2.45;;;9.70;99.90;;;;;;5012954;28;20077;-78
2023/12/25 08:17:38;;;;;;;13.50;2.55;;;9.70;99.90;;;;;;5012810;28;20046;-80
2023/12/25 08:20:05;;;;;;;11.25;2.47;;;9.70;99.90;;;;;;5012802;28;20057;-79
2023/12/25 08:22:31;;;;;;;12.50;1.73;;;9.70;99.90;;;;;;5012801;28;20053;-78
2023/12/25 08:24:57;;;;;;;11.77;1.85;;;9.70;99.90;;;;;;5012277;28;20064;-78
2023/12/25 08:27:22;;;;;;;17.27;2.13;;;9.70;99.90;;;;;;5012502;28;20077;-80
2023/12/25 08:29:48;;;;;;;11.55;2.10;;;9.70;99.90;;;;;;5012455;28;20088;-78
2023/12/25 08:32:14;;;;;;;13.13;2.30;;;9.70;99.90;;;;;;5012454;28;20069;-80
2023/12/25 08:34:41;;;;;;;12.90;1.98;;;9.70;99.90;;;;;;5012727;28;20053;-83
2023/12/25 08:37:08;;;;;;;12.20;2.17;;;9.60;99.90;;;;;;5007217;28;20053;-79
2023/12/25 08:39:34;;;;;;;13.65;2.22;;;9.70;99.90;;;;;;5003028;28;20073;-77
2023/12/25 08:42:02;;;;;;;10.18;2.42;;;9.80;99.90;;;;;;5013161;28;20049;-82
2023/12/25 08:44:27;;;;;;;16.67;2.63;;;9.70;99.90;;;;;;5010106;28;20045;-84
2023/12/25 08:46:53;;;;;;;11.65;3.10;;;9.60;99.90;;;;;;5012453;28;20462;-84
2023/12/25 08:49:19;;;;;;;15.02;2.15;;;9.60;99.90;;;;;;5012260;28;20053;-87
2023/12/25 08:51:44;;;;;;;14.20;2.85;;;9.60;99.90;;;;;;5010030;28;20104;-83
2023/12/25 08:54:10;;;;;;;10.82;2.10;;;9.60;99.90;;;;;;5001501;28;20099;-80
2023/12/25 08:56:36;;;;;;;15.48;2.05;;;9.60;99.90;;;;;;5012242;28;20100;-81
2023/12/25 08:59:04;;;;;;;17.02;2.20;;;9.60;99.90;;;;;;5012538;28;20056;-80
2023/12/25 09:01:30;;;;;;;12.43;1.92;;;9.60;99.90;;;;;;5011898;28;20053;-87
2023/12/25 09:03:55;;;;;;;14.18;2.00;;;9.60;99.90;;;;;;5000257;28;20046;-80
2023/12/25 09:06:21;;;;;;;9.68;1.83;;;9.60;99.90;;;;;;5006001;28;20375;-82
2023/12/25 09:08:48;;;;;;;14.32;2.15;;;9.60;99.90;;;;;;4995086;28;20054;-81
2023/12/25 09:11:14;;;;;;;9.15;1.85;;;9.60;99.90;;;;;;5011568;28;20378;-92
2023/12/25 09:13:40;;;;;;;9.77;1.98;;;9.60;99.90;;;;;;5013146;28;20042;-92
2023/12/25 09:16:05;;;;;;;9.07;1.58;;;9.60;99.90;;;;;;5011499;28;20046;-82
2023/12/25 09:18:31;;;;;;;13.02;1.63;;;9.50;99.90;;;;;;5011265;28;20397;-79
2023/12/25 09:20:57;;;;;;;12.77;2.15;;;9.50;99.90;;;;;;5011314;28;20045;-80
2023/12/25 09:23:23;;;;;;;8.27;1.75;;;9.50;99.90;;;;;;4999174;28;20056;-79
2023/12/25 09:25:49;;;;;;;13.57;2.40;;;9.60;99.90;;;;;;5008542;28;20046;-80
2023/12/25 09:28:15;;;;;;;14.50;2.47;;;9.50;99.90;;;;;;5008774;28;20082;-84
2023/12/25 09:30:41;;;;;;;9.25;1.88;;;9.50;99.90;;;;;;5010958;28;20115;-79
2023/12/25 09:33:07;;;;;;;13.50;2.63;;;9.50;99.90;;;;;;5011275;28;20054;-80
2023/12/25 09:35:32;;;;;;;18.65;2.60;;;9.50;99.90;;;;;;4994366;28;20041;-77
2023/12/25 09:37:58;;;;;;;10.20;2.13;;;9.50;99.90;;;;;;5013042;28;20680;-80
2023/12/25 09:40:24;;;;;;;9.98;1.80;;;9.50;99.90;;;;;;4996128;28;20050;-77
2023/12/25 09:42:50;;;;;;;15.43;2.70;;;9.50;99.90;;;;;;5001433;28;20050;-77
2023/12/25 09:45:17;;;;;;;14.45;1.88;;;9.50;99.90;;;;;;4998161;28;20053;-77
2023/12/25 09:47:44;;;;;;;11.07;2.05;;;9.50;99.90;;;;;;5015706;28;20085;-77
2023/12/25 09:50:11;;;;;;;8.60;2.08;;;9.40;99.90;;;;;;5016574;28;20081;-77
2023/12/25 09:52:37;;;;;;;12.95;2.25;;;9.50;99.90;;;;;;5015377;28;20498;-77
2023/12/25 09:55:03;;;;;;;13.23;1.70;;;9.50;99.90;;;;;;4998948;28;20049;-77
2023/12/25 09:57:33;;;;;;;12.88;1.95;;;9.40;99.90;;;;;;5016910;28;20042;-77
2023/12/25 10:00:02;;;;;;;10.85;1.67;;;9.50;99.90;;;;;;5014745;28;20049;-77
2023/12/25 10:02:28;;;;;;;14.95;1.98;;;9.50;99.90;;;;;;5015085;28;20053;-79
2023/12/25 10:04:55;;;;;;;11.30;1.70;;;9.50;99.90;;;;;;5014745;28;20053;-77
2023/12/25 10:07:20;;;;;;;10.77;1.65;;;9.50;99.90;;;;;;5014913;28;20041;-77
2023/12/25 10:09:53;;;;;;;11.13;2.47;;;9.50;99.90;;;;;;5015604;28;20050;-77
2023/12/25 10:12:19;;;;;;;9.45;1.45;;;9.50;99.90;;;;;;5015199;28;20057;-77
2023/12/25 10:14:46;;;;;;;9.90;1.35;;;9.50;99.90;;;;;;5016370;28;20058;-77
2023/12/25 10:17:11;;;;;;;14.93;2.15;;;9.50;99.90;;;;;;5014620;28;20180;-77
2023/12/25 10:19:55;;;;;;;18.50;2.20;;;9.50;99.90;;;;;;5015405;28;20136;-77
2023/12/25 10:22:32;;;;;;;11.23;2.30;;;9.50;99.90;;;;;;5015399;28;20058;-77
2023/12/25 10:25:18;;;;;;;10.27;1.67;;;9.50;99.90;;;;;;5014573;28;20755;-77
2023/12/25 10:27:44;;;;;;;13.27;2.28;;;9.50;99.90;;;;;;5000998;28;20053;-77
2023/12/25 10:30:17;;;;;;;14.65;1.85;;;9.50;99.90;;;;;;4998419;28;20133;-77
2023/12/25 10:32:43;;;;;;;11.50;1.90;;;9.50;99.90;;;;;;5014791;28;20402;-77
2023/12/25 10:35:19;;;;;;;9.77;1.92;;;9.50;99.90;;;;;;5014292;28;20080;-77
2023/12/25 10:37:46;;;;;;;13.23;2.08;;;9.50;99.90;;;;;;5014845;28;20367;-77
2023/12/25 10:40:24;;;;;;;16.05;2.35;;;9.50;99.90;;;;;;5014823;28;20060;-77
2023/12/25 10:42:51;;;;;;;13.27;2.38;;;9.50;99.90;;;;;;5014529;28;20050;-77
2023/12/25 10:45:21;;;;;;;8.98;1.48;;;9.50;99.90;;;;;;5013781;28;20064;-78
2023/12/25 10:47:50;;;;;;;9.93;2.17;;;9.60;99.90;;;;;;5012345;28;20085;-77
2023/12/25 10:50:28;;;;;;;12.75;2.78;;;9.60;99.90;;;;;;5014606;28;20050;-77
2023/12/25 10:52:54;;;;;;;16.52;2.60;;;9.60;99.90;;;;;;5012504;28;20070;-77
2023/12/25 10:55:25;;;;;;;10.65;1.92;;;9.60;99.90;;;;;;4994750;28;20050;-77
2023/12/25 10:57:52;;;;;;;18.15;3.22;;;9.70;99.90;;;;;;4994569;28;20089;-77
2023/12/25 11:00:20;;;;;;;12.85;2.00;;;9.60;99.90;;;;;;5002780;28;20050;-81
2023/12/25 11:02:52;;;;;;;10.70;2.08;;;9.60;99.90;;;;;;5011021;28;20089;-77
2023/12/25 11:05:19;;;;;;;16.70;2.42;;;9.60;99.90;;;;;;5014862;28;20816;-77
2023/12/25 11:07:45;;;;;;;10.68;1.95;;;9.70;99.90;;;;;;5014415;28;20082;-77
2023/12/25 11:10:12;;;;;;;11.85;2.08;;;9.50;99.90;;;;;;5014156;28;20085;-78
2023/12/25 11:12:38;;;;;;;11.48;2.05;;;9.70;99.90;;;;;;4997641;28;20053;-77
2023/12/25 11:15:05;;;;;;;13.57;2.10;;;9.70;99.90;;;;;;5015426;28;20103;-77
2023/12/25 11:17:32;;;;;;;13.57;2.33;;;9.70;99.90;;;;;;5014043;28;20050;-77
2023/12/25 11:19:58;;;;;;;19.00;2.35;;;9.70;99.90;;;;;;5013975;28;20057;-78
2023/12/25 11:22:33;;;;;;;12.98;2.08;;;9.70;99.90;;;;;;5013223;28;20046;-77
2023/12/25 11:25:02;;;;;;;8.52;1.85;;;9.70;99.90;;;;;;5012241;28;20049;-77
2023/12/25 11:27:29;;;;;;;15.77;1.92;;;9.70;99.90;;;;;;4994353;28;20049;-77
2023/12/25 11:30:08;;;;;;;14.93;1.90;;;9.70;99.90;;;;;;4994601;28;20042;-77
2023/12/25 11:32:36;;;;;;;14.82;2.83;;;9.70;99.90;;;;;;5008105;28;20057;-77
2023/12/25 11:35:02;;;;;;;16.13;2.38;;;9.70;99.90;;;;;;5014469;28;20061;-77
2023/12/25 11:37:28;;;;;;;14.43;1.80;;;9.70;99.90;;;;;;5013917;28;20038;-77
2023/12/25 11:40:11;;;;;;;17.65;2.25;;;9.70;99.90;;;;;;5013595;28;20135;-77
2023/12/25 11:42:37;;;;;;;19.60;2.70;;;9.70;99.90;;;;;;5013504;28;20108;-77
2023/12/25 11:45:09;;;;;;;14.48;2.20;;;9.70;99.90;;;;;;5012443;28;20060;-77
2023/12/25 11:47:44;;;;;;;17.88;2.55;;;9.70;99.90;;;;;;5013616;28;20056;-77
2023/12/25 11:50:12;;;;;;;16.60;2.60;;;9.70;99.90;;;;;;5013067;28;20501;-77
2023/12/25 11:52:44;;;;;;;16.73;2.20;;;9.70;99.90;;;;;;5013302;28;20074;-77
2023/12/25 11:55:15;;;;;;;14.50;2.42;;;9.70;99.90;;;;;;5013053;28;20132;-77
2023/12/25 11:57:44;;;;;;;16.23;3.13;;;9.70;99.90;;;;;;5013340;28;20050;-77
2023/12/25 12:00:25;;;;;;;17.45;3.30;;;9.70;99.90;;;;;;5013503;28;20553;-77
2023/12/25 12:02:51;;;;;;;14.63;2.45;;;9.80;99.90;;;;;;4997086;28;20046;-76
2023/12/25 12:05:18;;;;;;;15.02;3.17;;;9.80;99.90;;;;;;5012543;28;20052;-77
2023/12/25 12:07:43;;;;;;;10.82;2.03;;;9.90;99.90;;;;;;5012951;28;20056;-77
2023/12/25 12:10:10;;;;;;;20.17;3.03;;;9.90;99.90;;;;;;5013458;28;20445;-77
2023/12/25 12:12:36;;;;;;;15.95;3.55;;;9.90;99.90;;;;;;5013260;28;20152;-77
2023/12/25 12:15:03;;;;;;;15.43;2.70;;;9.90;99.90;;;;;;5013213;28;20100;-77
2023/12/25 12:17:29;;;;;;;17.83;4.03;;;10.00;99.90;;;;;;5012580;28;20145;-77
2023/12/25 12:19:56;;;;;;;20.75;3.42;;;9.90;99.90;;;;;;5024390;28;20444;-77
2023/12/25 12:22:23;;;;;;;23.20;6.53;;;9.90;99.90;;;;;;5031645;28;20133;-77
2023/12/25 12:24:49;;;;;;;17.20;4.50;;;10.10;99.90;;;;;;5016634;28;20054;-77
2023/12/25 12:27:21;;;;;;;16.92;4.03;;;9.90;99.90;;;;;;5012163;28;20394;-77
2023/12/25 12:29:50;;;;;;;12.88;2.13;;;9.90;99.90;;;;;;5012737;28;20049;-77
2023/12/25 12:32:17;;;;;;;12.63;3.08;;;9.90;99.90;;;;;;5012487;28;20054;-77
2023/12/25 12:34:47;;;;;;;17.52;3.15;;;9.90;99.90;;;;;;5012640;28;20084;-77
2023/12/25 12:37:12;;;;;;;17.10;2.70;;;9.80;99.90;;;;;;5012356;28;20737;-77
2023/12/25 12:39:38;;;;;;;11.60;2.25;;;9.90;99.90;;;;;;5012146;28;20066;-77